Time;durP1;ratioP1;P1;durP2;ratioP2;P2;SDS_P1;SDS_P2;PMS_P1;PMS_P2;Temp;Humidity;BMP_temperature;BMP_pressure;BME280_temperature;BME280_humidity;BME280_pressure;Samples;Min_cycle;Max_cycle;Signal;HPM_P1;HPM_P2
2022/11/23 00:01:29;;;;;;;4.57;3.33;;;5.70;99.90;;;;;;4988687;28;20233;-87
2022/11/23 00:03:58;;;;;;;5.55;3.17;;;5.80;99.90;;;;;;4985038;28;20218;-87
2022/11/23 00:06:26;;;;;;;3.40;3.10;;;5.90;99.90;;;;;;4990557;28;20199;-87
2022/11/23 00:08:55;;;;;;;4.40;3.17;;;5.90;99.70;;;;;;4992356;28;20722;-87
2022/11/23 00:11:24;;;;;;;7.13;3.33;;;5.90;99.90;;;;;;4981141;28;20218;-89
2022/11/23 00:13:52;;;;;;;4.20;3.57;;;5.80;99.90;;;;;;4991162;28;20302;-88
2022/11/23 00:16:20;;;;;;;5.28;3.53;;;5.70;99.90;;;;;;4997139;28;20674;-87
2022/11/23 00:18:51;;;;;;;4.40;3.20;;;5.70;99.90;;;;;;5004968;28;20580;-87
2022/11/23 00:21:21;;;;;;;4.20;2.85;;;5.70;99.90;;;;;;5001101;28;20622;-86
2022/11/23 00:23:49;;;;;;;4.53;2.17;;;5.70;99.90;;;;;;5006441;28;20254;-86
2022/11/23 00:26:17;;;;;;;3.63;2.67;;;5.90;99.90;;;;;;5000374;28;20232;-86
2022/11/23 00:28:44;;;;;;;5.33;2.77;;;6.00;99.90;;;;;;5007644;28;20214;-87
2022/11/23 00:31:14;;;;;;;6.22;2.63;;;6.10;99.90;;;;;;5009712;28;20234;-87
2022/11/23 00:33:41;;;;;;;5.50;2.27;;;6.10;99.90;;;;;;5007803;28;20227;-86
2022/11/23 00:38:54;;;;;;;4.97;2.60;;;6.00;99.90;;;;;;5005315;28;20289;-87
2022/11/23 00:41:23;;;;;;;5.35;3.10;;;5.90;99.90;;;;;;5002946;28;20204;-86
2022/11/23 00:43:50;;;;;;;3.97;2.30;;;5.80;99.90;;;;;;5008975;28;20290;-87
2022/11/23 00:46:25;;;;;;;4.07;2.30;;;5.90;99.90;;;;;;5007404;28;20211;-87
2022/11/23 00:48:54;;;;;;;3.70;2.65;;;5.90;99.90;;;;;;5005854;28;20293;-87
2022/11/23 00:51:32;;;;;;;4.50;2.50;;;5.80;99.90;;;;;;5004980;28;20298;-90
2022/11/23 00:54:00;;;;;;;5.28;2.80;;;5.80;99.90;;;;;;4993808;28;20580;-87
2022/11/23 00:56:28;;;;;;;2.47;2.27;;;5.80;99.90;;;;;;5005206;28;20259;-86
2022/11/23 00:58:58;;;;;;;6.22;2.92;;;5.80;99.90;;;;;;4995030;28;20307;-86
2022/11/23 01:01:26;;;;;;;2.73;2.40;;;5.90;99.90;;;;;;5005811;28;20195;-86
2022/11/23 01:03:54;;;;;;;5.53;3.50;;;6.00;99.90;;;;;;5003814;28;20211;-88
2022/11/23 01:06:27;;;;;;;5.10;3.13;;;5.90;99.90;;;;;;4989358;28;20265;-87
2022/11/23 01:08:55;;;;;;;4.03;3.30;;;5.90;99.90;;;;;;4984572;28;20214;-87
2022/11/23 01:11:25;;;;;;;4.17;2.80;;;5.90;99.90;;;;;;5007390;28;20231;-86
2022/11/23 01:13:52;;;;;;;2.53;2.33;;;5.90;99.90;;;;;;5007219;28;20195;-86
2022/11/23 01:16:21;;;;;;;5.43;2.50;;;5.80;99.90;;;;;;5007966;28;20229;-87
2022/11/23 01:18:51;;;;;;;3.47;2.45;;;5.80;99.90;;;;;;5007083;28;20690;-87
2022/11/23 01:21:18;;;;;;;2.60;2.20;;;5.70;99.90;;;;;;5005457;28;20252;-87
2022/11/23 01:23:46;;;;;;;3.73;2.53;;;5.70;99.90;;;;;;5002809;28;20317;-86
2022/11/23 01:26:13;;;;;;;2.90;2.20;;;5.70;99.90;;;;;;4999766;28;20299;-87
2022/11/23 01:28:41;;;;;;;4.17;2.80;;;5.80;99.90;;;;;;5003113;28;20640;-87
2022/11/23 01:31:15;;;;;;;3.37;2.53;;;5.70;99.90;;;;;;5008822;28;20292;-87
2022/11/23 01:33:42;;;;;;;6.13;2.60;;;5.60;99.90;;;;;;5004755;28;20235;-86
2022/11/23 01:36:10;;;;;;;4.40;2.33;;;5.50;99.90;;;;;;4995409;28;20282;-87
2022/11/23 01:38:38;;;;;;;4.40;2.67;;;5.50;99.90;;;;;;5007003;28;20546;-86
2022/11/23 01:43:49;;;;;;;5.43;2.87;;;5.40;99.90;;;;;;5003434;28;20211;-88
2022/11/23 01:46:17;;;;;;;6.37;3.30;;;5.30;99.90;;;;;;5003370;28;20804;-87
2022/11/23 01:48:47;;;;;;;5.47;2.97;;;5.30;99.90;;;;;;5007754;28;20318;-86
2022/11/23 01:51:16;;;;;;;3.80;2.30;;;5.30;99.90;;;;;;5007831;28;20286;-87
2022/11/23 01:53:45;;;;;;;4.10;2.90;;;5.20;99.90;;;;;;4996665;28;20223;-87
2022/11/23 01:56:17;;;;;;;4.17;2.80;;;5.20;99.90;;;;;;5005860;28;20265;-86
2022/11/23 01:58:48;;;;;;;5.43;3.07;;;5.20;99.90;;;;;;4998356;28;20280;-88
2022/11/23 02:01:14;;;;;;;4.90;2.70;;;5.30;99.90;;;;;;5006146;28;20244;-88
2022/11/23 02:03:43;;;;;;;5.00;2.90;;;5.20;99.90;;;;;;5006030;28;20199;-87
2022/11/23 02:06:14;;;;;;;5.00;2.87;;;5.20;99.90;;;;;;5005910;28;20287;-87
2022/11/23 02:08:42;;;;;;;4.57;2.80;;;5.20;99.90;;;;;;5005207;28;20573;-86
2022/11/23 02:11:11;;;;;;;3.30;2.40;;;5.20;99.90;;;;;;5004369;28;20215;-88
2022/11/23 02:13:39;;;;;;;3.13;2.53;;;5.10;99.90;;;;;;5004280;28;20257;-87
2022/11/23 02:16:07;;;;;;;4.57;3.10;;;5.10;99.90;;;;;;5002852;28;20223;-87
2022/11/23 02:18:35;;;;;;;4.17;2.43;;;5.10;99.90;;;;;;4999819;28;20200;-87
2022/11/23 02:21:06;;;;;;;4.77;3.00;;;5.10;99.90;;;;;;5006059;28;20191;-86
2022/11/23 02:23:38;;;;;;;3.63;3.00;;;5.10;99.90;;;;;;5004741;28;20282;-86
2022/11/23 02:26:09;;;;;;;4.33;2.60;;;5.10;99.90;;;;;;5005648;28;20258;-87
2022/11/23 02:28:42;;;;;;;3.80;2.57;;;5.20;99.90;;;;;;5003701;28;20203;-86
2022/11/23 02:31:09;;;;;;;4.83;2.30;;;5.30;99.90;;;;;;4999051;28;20195;-86
2022/11/23 02:33:37;;;;;;;3.27;2.40;;;5.30;99.90;;;;;;5004830;28;20471;-87
2022/11/23 02:36:28;;;;;;;4.23;2.67;;;5.20;99.90;;;;;;4997853;28;20928;-87
2022/11/23 02:38:57;;;;;;;4.50;2.90;;;5.10;99.90;;;;;;5006457;28;20201;-87
2022/11/23 02:41:26;;;;;;;4.80;3.33;;;5.00;99.90;;;;;;5000749;28;20200;-87
2022/11/23 02:43:56;;;;;;;5.47;2.47;;;5.00;99.90;;;;;;5006459;28;20202;-87
2022/11/23 02:46:23;;;;;;;5.37;2.60;;;4.90;99.90;;;;;;5008127;28;20208;-86
2022/11/23 02:48:50;;;;;;;8.70;2.47;;;4.90;99.90;;;;;;5000903;28;20294;-87
2022/11/23 02:51:17;;;;;;;4.43;2.57;;;4.80;99.90;;;;;;5010220;28;20308;-87
2022/11/23 02:53:44;;;;;;;4.03;2.57;;;4.70;99.90;;;;;;5009925;28;20310;-87
2022/11/23 02:56:10;;;;;;;6.30;3.27;;;4.70;99.90;;;;;;5006587;28;20207;-87
2022/11/23 02:58:39;;;;;;;2.87;2.43;;;4.70;99.90;;;;;;5006264;28;20218;-86
2022/11/23 03:01:06;;;;;;;3.43;2.27;;;4.70;99.90;;;;;;5001844;28;20214;-86
2022/11/23 03:03:33;;;;;;;4.10;2.30;;;4.60;99.90;;;;;;5009997;28;20191;-86
2022/11/23 03:06:00;;;;;;;3.67;2.40;;;4.70;99.90;;;;;;5009448;28;20209;-87
2022/11/23 03:08:27;;;;;;;4.13;2.53;;;4.80;99.90;;;;;;5008690;28;20204;-86
2022/11/23 03:10:55;;;;;;;4.03;3.23;;;4.80;99.90;;;;;;4996421;28;20207;-87
2022/11/23 03:13:22;;;;;;;4.20;3.40;;;4.80;99.90;;;;;;4986090;28;20229;-89
2022/11/23 03:15:50;;;;;;;4.93;3.17;;;4.80;99.90;;;;;;4987944;28;20196;-86
2022/11/23 03:18:17;;;;;;;3.70;3.00;;;4.80;99.90;;;;;;4987693;28;20231;-87
2022/11/23 03:20:44;;;;;;;5.57;2.50;;;4.60;99.90;;;;;;4998045;28;20206;-86
2022/11/23 03:23:12;;;;;;;3.60;2.20;;;4.50;99.90;;;;;;5007544;28;20199;-86
2022/11/23 03:25:39;;;;;;;4.23;2.37;;;4.50;99.90;;;;;;5003583;28;20191;-86
2022/11/23 03:28:06;;;;;;;5.10;2.30;;;4.50;99.90;;;;;;5002955;28;20731;-87
2022/11/23 03:30:33;;;;;;;5.13;2.60;;;4.50;99.90;;;;;;5009798;28;20294;-87
2022/11/23 03:33:02;;;;;;;4.77;2.30;;;4.40;99.90;;;;;;5008275;28;20287;-87
2022/11/23 03:35:28;;;;;;;6.10;2.60;;;4.30;99.90;;;;;;5001470;28;20286;-87
2022/11/23 03:37:56;;;;;;;3.30;2.33;;;4.20;99.90;;;;;;5010263;28;20704;-87
2022/11/23 03:40:23;;;;;;;2.83;2.30;;;4.10;99.90;;;;;;5008178;28;20234;-86
2022/11/23 03:42:50;;;;;;;3.10;2.27;;;4.10;99.90;;;;;;5003975;28;20290;-86
2022/11/23 03:45:17;;;;;;;3.23;2.37;;;4.10;99.90;;;;;;5008286;28;20783;-86
2022/11/23 03:47:44;;;;;;;4.17;2.10;;;4.10;99.90;;;;;;5008317;28;20200;-86
2022/11/23 03:50:13;;;;;;;3.37;2.33;;;4.00;99.90;;;;;;5003900;28;20310;-86
2022/11/23 03:52:39;;;;;;;2.87;2.23;;;4.10;99.90;;;;;;5000764;28;20221;-86
2022/11/23 03:55:07;;;;;;;3.77;2.30;;;4.10;99.90;;;;;;5001751;28;20215;-89
2022/11/23 03:57:34;;;;;;;2.87;2.10;;;3.90;99.90;;;;;;4999254;28;20278;-86
2022/11/23 04:00:01;;;;;;;3.83;1.90;;;3.90;99.90;;;;;;5004138;28;20213;-86
2022/11/23 04:02:28;;;;;;;3.03;2.27;;;3.90;99.90;;;;;;4997981;28;20229;-86
2022/11/23 04:04:55;;;;;;;2.70;2.23;;;3.90;99.90;;;;;;5001701;28;20229;-86
2022/11/23 04:07:23;;;;;;;3.87;2.43;;;3.80;99.90;;;;;;5004921;28;20203;-87
2022/11/23 04:09:50;;;;;;;3.73;2.20;;;3.80;99.90;;;;;;5008550;28;20220;-87
2022/11/23 04:12:17;;;;;;;3.47;2.40;;;3.70;99.90;;;;;;5009090;28;20778;-87
2022/11/23 04:14:44;;;;;;;4.60;2.10;;;3.70;99.90;;;;;;5005397;28;20234;-86
2022/11/23 04:17:11;;;;;;;4.33;2.20;;;3.60;99.90;;;;;;5003528;28;20227;-86
2022/11/23 04:19:37;;;;;;;3.80;2.37;;;3.60;99.90;;;;;;5006087;28;20631;-86
2022/11/23 04:22:04;;;;;;;5.70;4.23;;;3.60;99.90;;;;;;5009560;28;20203;-86
2022/11/23 04:24:33;;;;;;;9.40;6.00;;;3.60;99.90;;;;;;5008977;28;20264;-86
2022/11/23 04:26:59;;;;;;;7.57;4.13;;;3.60;99.90;;;;;;5008603;28;20353;-86
2022/11/23 04:29:26;;;;;;;3.70;2.60;;;3.60;99.90;;;;;;5002708;28;20218;-86
2022/11/23 04:31:53;;;;;;;5.17;2.53;;;3.60;99.90;;;;;;5008892;28;20222;-86
2022/11/23 04:34:20;;;;;;;2.90;2.37;;;3.70;99.90;;;;;;5007547;28;20345;-86
2022/11/23 04:36:47;;;;;;;4.87;2.57;;;3.70;99.90;;;;;;5004843;28;20214;-87
2022/11/23 04:39:18;;;;;;;4.17;2.30;;;3.70;99.90;;;;;;5007189;28;20207;-87
2022/11/23 04:41:46;;;;;;;3.23;2.10;;;3.70;99.90;;;;;;5010238;28;20211;-86
2022/11/23 04:44:13;;;;;;;3.23;2.13;;;3.70;99.90;;;;;;5006418;28;20215;-87
2022/11/23 04:46:40;;;;;;;5.27;3.03;;;3.60;99.90;;;;;;5006933;28;20206;-86
2022/11/23 04:49:08;;;;;;;4.97;3.60;;;3.60;99.90;;;;;;5006557;28;20744;-87
2022/11/23 04:51:35;;;;;;;4.60;3.20;;;3.60;99.90;;;;;;5006060;28;20677;-87
2022/11/23 04:54:02;;;;;;;4.03;2.40;;;3.60;99.90;;;;;;5002822;28;20232;-86
2022/11/23 04:56:29;;;;;;;2.43;2.00;;;3.70;99.90;;;;;;4998675;28;20621;-86
2022/11/23 04:59:02;;;;;;;2.77;2.00;;;3.70;99.90;;;;;;5008287;28;20219;-86
2022/11/23 05:01:28;;;;;;;4.53;2.50;;;3.80;99.90;;;;;;5000747;28;20326;-86
2022/11/23 05:03:55;;;;;;;3.73;2.57;;;3.70;99.90;;;;;;5006358;28;20203;-86
2022/11/23 05:06:22;;;;;;;3.77;2.33;;;3.70;99.90;;;;;;5006735;28;20302;-87
2022/11/23 05:08:49;;;;;;;5.47;2.47;;;3.80;99.90;;;;;;5006726;28;20209;-86
2022/11/23 05:11:16;;;;;;;3.87;2.30;;;3.80;99.90;;;;;;5005598;28;20195;-87
2022/11/23 05:13:43;;;;;;;2.97;2.30;;;3.80;99.90;;;;;;5006145;28;20341;-87
2022/11/23 05:16:11;;;;;;;4.97;2.20;;;4.00;99.90;;;;;;5005469;28;20320;-88
2022/11/23 05:18:38;;;;;;;5.07;2.57;;;4.00;99.90;;;;;;5004852;28;20229;-86
2022/11/23 05:21:05;;;;;;;3.73;2.40;;;4.00;99.90;;;;;;5000118;28;20205;-86
2022/11/23 05:23:32;;;;;;;2.90;2.40;;;4.00;99.90;;;;;;5005083;28;20294;-86
2022/11/23 05:25:59;;;;;;;3.23;1.90;;;4.10;99.90;;;;;;5000668;28;20564;-86
2022/11/23 05:28:26;;;;;;;3.20;1.90;;;4.20;99.90;;;;;;5005939;28;20350;-86
2022/11/23 05:31:00;;;;;;;5.70;2.27;;;4.10;99.90;;;;;;5005015;28;20206;-87
2022/11/23 05:33:29;;;;;;;4.03;2.70;;;4.10;99.90;;;;;;5002968;28;20774;-87
2022/11/23 05:35:56;;;;;;;4.03;2.13;;;4.10;99.90;;;;;;5004073;28;20278;-88
2022/11/23 05:38:23;;;;;;;2.73;1.87;;;4.10;99.90;;;;;;4995926;28;20592;-87
2022/11/23 05:40:49;;;;;;;2.33;2.07;;;4.10;99.90;;;;;;5001708;28;20668;-86
2022/11/23 05:43:17;;;;;;;3.10;2.00;;;4.10;99.90;;;;;;4998008;28;20208;-87
2022/11/23 05:45:44;;;;;;;3.80;2.10;;;4.10;99.90;;;;;;5001407;28;21772;-87
2022/11/23 05:48:11;;;;;;;3.47;2.10;;;4.20;99.90;;;;;;5008439;28;20257;-86
2022/11/23 05:50:39;;;;;;;4.40;2.60;;;4.20;99.90;;;;;;5005765;28;20697;-87
2022/11/23 05:53:06;;;;;;;4.73;2.17;;;4.20;99.90;;;;;;5007266;28;20222;-87
2022/11/23 05:55:33;;;;;;;3.20;1.97;;;4.10;99.90;;;;;;5006944;28;20309;-87
2022/11/23 05:58:02;;;;;;;4.03;3.10;;;4.10;99.90;;;;;;4985545;28;20215;-89
2022/11/23 06:00:29;;;;;;;3.33;2.63;;;4.10;99.90;;;;;;4986483;28;20203;-89
2022/11/23 06:02:59;;;;;;;5.30;2.30;;;4.10;99.90;;;;;;4994098;28;20674;-86
2022/11/23 06:05:26;;;;;;;3.40;2.20;;;4.20;99.90;;;;;;4999703;28;20677;-85
2022/11/23 06:07:55;;;;;;;2.03;1.83;;;4.10;99.90;;;;;;5000264;28;20600;-86
2022/11/23 06:10:24;;;;;;;3.80;2.20;;;4.20;99.90;;;;;;5005348;28;20681;-86
2022/11/23 06:12:51;;;;;;;4.00;1.90;;;4.20;99.90;;;;;;5003546;28;20207;-87
2022/11/23 06:15:18;;;;;;;5.73;2.80;;;4.20;99.90;;;;;;4997814;28;20211;-87
2022/11/23 06:17:45;;;;;;;4.43;3.07;;;4.20;99.90;;;;;;4992283;28;20237;-86
2022/11/23 06:20:12;;;;;;;4.33;2.17;;;4.20;99.90;;;;;;4980740;28;20217;-86
2022/11/23 06:22:39;;;;;;;2.63;1.93;;;4.20;99.90;;;;;;5003189;28;20642;-86
2022/11/23 06:25:08;;;;;;;4.43;2.10;;;4.10;99.90;;;;;;5004074;28;20358;-86
2022/11/23 06:27:35;;;;;;;4.87;2.37;;;4.10;99.90;;;;;;5004194;28;20203;-89
2022/11/23 06:30:02;;;;;;;4.93;2.20;;;4.10;99.90;;;;;;4998480;28;20206;-87
2022/11/23 06:32:29;;;;;;;4.00;3.17;;;4.10;99.90;;;;;;4996902;28;20264;-88
2022/11/23 06:34:56;;;;;;;2.63;2.20;;;4.20;99.90;;;;;;4994018;28;20199;-86
2022/11/23 06:37:22;;;;;;;7.07;3.20;;;4.20;99.90;;;;;;5003634;28;20222;-86
2022/11/23 06:39:49;;;;;;;3.20;2.20;;;4.20;99.90;;;;;;5005896;28;20207;-88
2022/11/23 06:42:18;;;;;;;4.97;3.63;;;4.20;99.90;;;;;;4985959;28;20708;-87
2022/11/23 06:44:44;;;;;;;9.40;4.30;;;4.20;99.90;;;;;;4984435;28;20207;-86
2022/11/23 06:47:11;;;;;;;5.10;3.83;;;4.20;99.90;;;;;;4985893;28;20310;-87
2022/11/23 06:49:38;;;;;;;7.20;3.70;;;4.30;99.90;;;;;;4978706;28;20215;-89
2022/11/23 06:52:05;;;;;;;7.93;3.63;;;4.30;99.90;;;;;;4986087;28;20217;-86
2022/11/23 06:54:32;;;;;;;5.63;3.90;;;4.30;99.90;;;;;;4988049;28;20659;-87
2022/11/23 06:56:59;;;;;;;7.70;4.60;;;4.40;99.90;;;;;;4984162;28;20234;-86
2022/11/23 06:59:28;;;;;;;6.40;3.63;;;4.40;99.90;;;;;;4982625;28;20900;-88
2022/11/23 07:01:55;;;;;;;5.90;4.00;;;4.50;99.90;;;;;;4988126;28;20207;-86
2022/11/23 07:04:22;;;;;;;3.90;2.90;;;4.50;99.90;;;;;;4985496;28;20353;-87
2022/11/23 07:06:49;;;;;;;5.97;3.27;;;4.50;99.90;;;;;;4987646;28;20739;-88
2022/11/23 07:09:16;;;;;;;3.30;3.00;;;4.60;99.90;;;;;;4987189;28;20637;-88
2022/11/23 07:11:43;;;;;;;6.60;2.37;;;4.60;99.90;;;;;;4990928;28;20210;-87
2022/11/23 07:14:09;;;;;;;3.97;2.37;;;4.70;99.90;;;;;;5002744;28;20331;-87
2022/11/23 07:16:38;;;;;;;4.17;1.80;;;4.60;99.90;;;;;;4999362;28;20294;-86
2022/11/23 07:19:05;;;;;;;2.70;2.10;;;4.70;99.90;;;;;;5003862;28;20702;-86
2022/11/23 07:21:32;;;;;;;5.30;2.40;;;4.80;99.90;;;;;;5002357;28;20630;-86
2022/11/23 07:23:59;;;;;;;3.83;2.13;;;4.80;99.90;;;;;;5003952;28;20213;-86
2022/11/23 07:26:26;;;;;;;3.33;2.17;;;4.80;99.90;;;;;;5002979;28;20226;-87
2022/11/23 07:28:52;;;;;;;4.33;2.03;;;4.90;99.90;;;;;;5004993;28;20214;-88
2022/11/23 07:31:19;;;;;;;3.67;2.10;;;5.00;99.90;;;;;;5002987;28;20761;-87
2022/11/23 07:33:48;;;;;;;3.50;2.07;;;5.10;99.90;;;;;;5004690;28;20685;-87
2022/11/23 07:36:15;;;;;;;3.90;2.13;;;5.20;99.90;;;;;;5007774;28;20200;-86
2022/11/23 07:38:42;;;;;;;5.47;3.67;;;5.20;99.90;;;;;;4992737;28;20226;-86
2022/11/23 07:41:09;;;;;;;7.43;3.03;;;5.30;99.90;;;;;;4986247;28;20212;-88
2022/11/23 07:43:36;;;;;;;6.23;3.37;;;5.40;99.90;;;;;;4989430;28;20230;-86
2022/11/23 07:46:03;;;;;;;4.00;2.78;;;5.50;99.90;;;;;;4990262;28;20200;-86
2022/11/23 07:48:30;;;;;;;8.27;3.08;;;5.60;99.90;;;;;;5001091;28;20199;-86
2022/11/23 07:50:59;;;;;;;4.55;2.47;;;5.60;99.90;;;;;;5004720;28;20265;-86
2022/11/23 07:53:26;;;;;;;6.07;2.58;;;5.70;99.90;;;;;;5004930;28;20266;-86
2022/11/23 07:55:56;;;;;;;4.35;2.22;;;5.90;99.60;;;;;;5007669;28;20211;-87
2022/11/23 07:58:23;;;;;;;4.53;2.38;;;5.90;98.90;;;;;;5008603;28;20223;-87
2022/11/23 08:00:54;;;;;;;4.43;2.03;;;5.90;99.00;;;;;;5000719;28;20230;-87
2022/11/23 08:03:21;;;;;;;6.78;2.63;;;6.00;98.80;;;;;;5003214;28;20314;-87
2022/11/23 08:05:48;;;;;;;6.07;3.10;;;6.00;98.60;;;;;;5006646;28;20675;-87
2022/11/23 08:08:16;;;;;;;5.30;2.83;;;6.10;98.30;;;;;;5004146;28;20297;-87
2022/11/23 08:10:43;;;;;;;4.20;2.47;;;6.00;98.30;;;;;;5006556;28;20304;-86
2022/11/23 08:13:10;;;;;;;4.30;2.45;;;6.10;98.50;;;;;;5008673;28;20195;-87
2022/11/23 08:15:37;;;;;;;6.30;2.90;;;6.10;97.90;;;;;;4988762;28;20219;-88
2022/11/23 08:18:04;;;;;;;5.93;2.03;;;6.10;98.10;;;;;;5001491;28;20256;-87
2022/11/23 08:20:32;;;;;;;2.30;1.85;;;6.30;98.50;;;;;;5007773;28;20678;-88
2022/11/23 08:22:59;;;;;;;3.88;2.60;;;6.40;97.80;;;;;;4991063;28;20203;-88
2022/11/23 08:25:29;;;;;;;5.65;2.80;;;6.70;96.90;;;;;;4986335;28;20588;-87
2022/11/23 08:27:56;;;;;;;3.72;2.65;;;6.80;96.40;;;;;;4983247;28;20223;-88
2022/11/23 08:30:24;;;;;;;5.32;3.00;;;6.80;95.90;;;;;;4988692;28;20811;-87
2022/11/23 08:32:54;;;;;;;4.45;2.47;;;6.80;95.90;;;;;;4985221;28;20291;-87
2022/11/23 08:35:22;;;;;;;6.93;2.95;;;6.80;95.40;;;;;;4987149;28;20209;-87
2022/11/23 08:37:49;;;;;;;3.65;2.38;;;7.00;95.50;;;;;;4988491;28;20203;-89
2022/11/23 08:40:16;;;;;;;3.50;2.38;;;7.10;95.50;;;;;;4992003;28;20237;-89
2022/11/23 08:42:46;;;;;;;3.72;2.72;;;7.10;95.50;;;;;;4985060;28;20201;-88
2022/11/23 08:45:30;;;;;;;3.67;2.78;;;7.20;95.50;;;;;;4986981;28;20939;-88
2022/11/23 08:48:01;;;;;;;2.25;1.65;;;7.60;94.60;;;;;;5007166;28;20187;-88
2022/11/23 08:51:12;;;;;;;6.47;1.80;;;7.90;93.90;;;;;;5013661;28;20283;-88
2022/11/23 09:01:26;;;;;;;7.85;1.98;;;8.20;93.30;;;;;;5932202;22;20577;-90
2022/11/23 09:14:06;;;;;;;3.78;1.83;;;8.20;92.50;;;;;;5040514;28;20210;-88
2022/11/23 09:19:59;;;;;;;3.90;1.50;;;8.30;92.70;;;;;;5035005;28;20237;-92
2022/11/23 09:29:17;;;;;;;2.55;1.42;;;8.50;92.30;;;;;;5034745;28;20182;-91
2022/11/23 09:38:55;;;;;;;4.63;1.63;;;8.50;92.00;;;;;;5034449;28;20198;-94
2022/11/23 09:45:16;;;;;;;4.45;2.05;;;8.10;91.40;;;;;;5033501;28;20277;-93
2022/11/23 09:48:13;;;;;;;3.40;1.80;;;8.00;91.40;;;;;;5033934;28;20281;-92
2022/11/23 09:50:47;;;;;;;2.95;1.60;;;7.90;92.00;;;;;;5025765;28;20237;-91
2022/11/23 09:58:32;;;;;;;3.45;2.78;;;9.40;90.60;;;;;;5022920;28;20899;-93
2022/11/23 10:01:11;;;;;;;3.65;1.67;;;10.10;84.30;;;;;;5018524;28;20206;-92
2022/11/23 10:03:44;;;;;;;2.88;2.30;;;10.90;71.60;;;;;;5014811;28;20311;-92
2022/11/23 10:06:21;;;;;;;4.10;1.85;;;11.60;60.40;;;;;;5010815;28;20251;-93
2022/11/23 10:09:01;;;;;;;4.22;1.85;;;11.90;54.20;;;;;;5023108;28;20303;-93
2022/11/23 10:12:05;;;;;;;3.38;1.50;;;12.40;47.10;;;;;;5014380;28;20238;-93
2022/11/23 10:14:53;;;;;;;3.75;1.90;;;12.90;45.10;;;;;;5018315;28;20242;-91
2022/11/23 10:21:07;;;;;;;2.65;1.40;;;13.50;36.70;;;;;;5239927;22;20244;-94
2022/11/23 10:23:52;;;;;;;3.28;1.58;;;13.10;34.20;;;;;;5277070;22;20232;-91
2022/11/23 10:26:23;;;;;;;6.05;1.90;;;12.80;38.00;;;;;;5571954;22;20244;-92
2022/11/23 10:29:13;;;;;;;2.78;1.52;;;12.50;35.40;;;;;;5064524;28;20292;-93
2022/11/23 10:31:45;;;;;;;4.35;1.48;;;12.10;36.50;;;;;;5148519;22;20320;-90
2022/11/23 10:34:14;;;;;;;3.40;2.30;;;12.00;35.80;;;;;;5677331;22;20337;-89
2022/11/23 10:36:42;;;;;;;3.05;1.73;;;12.60;34.80;;;;;;5060337;28;20647;-89
2022/11/23 10:39:19;;;;;;;4.10;1.90;;;13.30;28.30;;;;;;5050724;28;20217;-88
2022/11/23 10:41:50;;;;;;;4.00;1.40;;;13.50;27.30;;;;;;5042993;28;20207;-88
2022/11/23 10:44:29;;;;;;;2.13;1.60;;;13.60;28.20;;;;;;5061445;28;20201;-89
2022/11/23 10:46:58;;;;;;;4.75;3.08;;;12.90;31.20;;;;;;5049989;28;20202;-90
2022/11/23 10:49:29;;;;;;;2.58;1.50;;;12.60;33.50;;;;;;5048329;28;20287;-90
2022/11/23 10:51:58;;;;;;;3.25;1.45;;;11.90;33.00;;;;;;5063075;28;20449;-92
2022/11/23 10:54:33;;;;;;;4.07;1.60;;;11.20;36.50;;;;;;5067023;28;20316;-91
2022/11/23 10:57:02;;;;;;;2.65;1.17;;;11.70;34.00;;;;;;5063290;28;20215;-91
2022/11/23 10:59:36;;;;;;;2.55;1.58;;;11.60;33.20;;;;;;5056898;28;20316;-89
2022/11/23 11:02:25;;;;;;;3.72;1.73;;;11.00;34.50;;;;;;5061158;28;20295;-89
2022/11/23 11:05:15;;;;;;;2.55;1.40;;;10.30;37.50;;;;;;5061359;28;20711;-90
2022/11/23 11:07:42;;;;;;;3.95;1.85;;;9.70;48.10;;;;;;5052911;28;20552;-87
2022/11/23 11:10:34;;;;;;;5.28;2.55;;;9.50;53.10;;;;;;5060819;28;20288;-87
2022/11/23 11:13:25;;;;;;;5.30;2.20;;;9.40;53.80;;;;;;5044579;28;20207;-87
2022/11/23 11:15:55;;;;;;;4.63;2.45;;;9.50;58.50;;;;;;5047713;28;20193;-87
2022/11/23 11:18:27;;;;;;;5.03;2.08;;;9.60;57.40;;;;;;5044510;28;20783;-88
2022/11/23 11:21:42;;;;;;;3.63;2.30;;;9.80;50.50;;;;;;5055684;28;21313;-88
2022/11/23 11:24:17;;;;;;;5.30;2.15;;;9.80;56.40;;;;;;5047750;28;20246;-87
2022/11/23 11:26:49;;;;;;;2.13;1.80;;;9.80;54.20;;;;;;5050105;28;20714;-88
2022/11/23 11:29:29;;;;;;;4.90;2.20;;;9.70;52.30;;;;;;5051444;28;20197;-87
2022/11/23 11:32:03;;;;;;;3.63;1.25;;;9.50;54.70;;;;;;5057657;28;20209;-86
2022/11/23 11:34:41;;;;;;;3.60;1.33;;;9.30;57.40;;;;;;5068837;28;20212;-89
2022/11/23 11:37:18;;;;;;;3.83;1.27;;;9.10;59.40;;;;;;5066869;28;20221;-90
2022/11/23 11:40:36;;;;;;;2.28;1.05;;;8.90;62.90;;;;;;5069038;28;20220;-90
2022/11/23 11:43:23;;;;;;;2.28;1.20;;;8.90;66.40;;;;;;5074238;28;20233;-89
2022/11/23 11:45:53;;;;;;;2.33;1.20;;;9.20;69.10;;;;;;5071003;28;20199;-90
2022/11/23 11:48:44;;;;;;;7.28;1.13;;;9.30;62.60;;;;;;5072726;28;20289;-90
2022/11/23 11:51:51;;;;;;;3.13;1.10;;;9.40;57.90;;;;;;5056173;28;20289;-90
2022/11/23 11:57:46;;;;;;;7.05;2.40;;;9.30;56.90;;;;;;5067646;28;20216;-89
2022/11/23 12:00:20;;;;;;;1.75;1.02;;;9.40;58.60;;;;;;5074144;28;20748;-91
2022/11/23 12:03:03;;;;;;;2.05;1.40;;;9.40;55.10;;;;;;5070511;28;20279;-89
2022/11/23 12:05:43;;;;;;;4.90;1.35;;;9.40;57.90;;;;;;5059892;28;20490;-90
2022/11/23 12:12:24;;;;;;;3.05;1.20;;;9.30;53.90;;;;;;5075984;28;20189;-92
2022/11/23 12:14:57;;;;;;;5.15;1.17;;;9.10;58.10;;;;;;5069572;28;20280;-92
2022/11/23 12:18:10;;;;;;;3.33;1.20;;;9.20;58.30;;;;;;5064072;28;20524;-90
2022/11/23 12:21:16;;;;;;;1.70;1.00;;;9.30;58.90;;;;;;5062215;28;20698;-91
2022/11/23 12:23:54;;;;;;;4.05;1.38;;;9.40;58.70;;;;;;5069335;28;21708;-89
2022/11/23 12:26:27;;;;;;;1.98;1.20;;;9.60;58.90;;;;;;5069355;28;20241;-89
2022/11/23 12:29:31;;;;;;;2.08;1.20;;;9.70;56.60;;;;;;5062532;28;20228;-90
2022/11/23 12:32:08;;;;;;;4.43;0.90;;;9.60;54.20;;;;;;5026395;28;20197;-89
2022/11/23 12:34:48;;;;;;;5.82;1.25;;;9.30;52.80;;;;;;5069453;28;20288;-91
2022/11/23 12:50:34;;;;;;;1.83;0.90;;;9.10;47.60;;;;;;5012479;28;20194;-89
2022/11/23 13:05:49;;;;;;;3.05;1.00;;;9.30;47.10;;;;;;4967818;28;20211;-91
2022/11/23 13:08:33;;;;;;;2.55;1.08;;;9.50;43.90;;;;;;4970144;28;20295;-90
2022/11/23 13:11:24;;;;;;;2.75;1.23;;;9.40;41.60;;;;;;4969689;28;20291;-90
2022/11/23 13:14:01;;;;;;;2.28;1.00;;;9.40;46.40;;;;;;4963667;28;20295;-91
2022/11/23 13:17:05;;;;;;;3.10;1.20;;;9.40;46.00;;;;;;4965830;28;20869;-91
2022/11/23 13:19:51;;;;;;;4.35;1.45;;;9.30;47.70;;;;;;4972503;28;20700;-90
2022/11/23 13:28:05;;;;;;;2.67;1.05;;;9.30;47.70;;;;;;4972185;28;20203;-91
2022/11/23 13:31:24;;;;;;;3.10;1.20;;;9.20;47.70;;;;;;4908014;29;20225;-90
2022/11/23 13:34:45;;;;;;;1.65;1.20;;;9.10;47.60;;;;;;4890826;29;20213;-91
2022/11/23 13:37:12;;;;;;;2.25;1.40;;;9.00;45.20;;;;;;4920959;29;20522;-90
2022/11/23 13:40:03;;;;;;;2.78;1.27;;;9.10;47.80;;;;;;4925849;29;20633;-91
2022/11/23 13:42:33;;;;;;;3.17;1.48;;;9.10;47.60;;;;;;4925541;29;20202;-91
2022/11/23 13:45:32;;;;;;;1.80;0.88;;;9.10;47.60;;;;;;4929894;29;20310;-91
2022/11/23 13:48:30;;;;;;;6.07;1.20;;;9.10;46.60;;;;;;4862380;29;20252;-91
2022/11/23 13:51:01;;;;;;;2.00;1.23;;;9.10;45.20;;;;;;4990168;28;20635;-92
2022/11/23 13:59:33;;;;;;;4.20;1.35;;;9.00;47.50;;;;;;4975782;28;20371;-92
2022/11/23 14:05:51;;;;;;;2.38;1.50;;;8.80;47.40;;;;;;4891223;29;20251;-92
2022/11/23 14:11:09;;;;;;;3.20;1.10;;;8.60;48.30;;;;;;4885890;29;20226;-93
2022/11/23 14:16:33;;;;;;;2.28;1.40;;;8.50;49.80;;;;;;4804239;29;20217;-91
2022/11/23 14:22:15;;;;;;;4.47;1.65;;;8.50;68.70;;;;;;4852603;29;20208;-90
2022/11/23 14:41:54;;;;;;;4.30;1.63;;;8.20;81.00;;;;;;5147970;22;20580;-93
2022/11/23 14:44:28;;;;;;;5.25;1.98;;;8.20;81.80;;;;;;5054530;28;20655;-92
2022/11/23 15:00:39;;;;;;;5.50;1.38;;;7.90;80.70;;;;;;5022082;28;20230;-96
2022/11/23 15:03:14;;;;;;;5.55;2.63;;;7.80;80.70;;;;;;5123165;22;21284;-90
2022/11/23 15:06:21;;;;;;;4.82;2.35;;;7.80;82.60;;;;;;5067415;28;20205;-93
2022/11/23 15:08:57;;;;;;;5.03;2.10;;;7.70;85.40;;;;;;5061067;28;20204;-91
2022/11/23 15:11:28;;;;;;;6.93;2.60;;;7.60;86.50;;;;;;5062723;28;20212;-90
2022/11/23 15:14:26;;;;;;;6.97;2.70;;;7.60;87.70;;;;;;5050088;28;20327;-91
2022/11/23 15:20:04;;;;;;;5.30;3.00;;;7.70;90.20;;;;;;5078034;28;20307;-93
2022/11/23 15:22:38;;;;;;;4.35;2.17;;;7.60;89.00;;;;;;5064874;28;20196;-92
2022/11/23 15:25:07;;;;;;;7.22;2.60;;;7.40;90.10;;;;;;5072401;28;20274;-92
2022/11/23 15:27:40;;;;;;;4.38;2.45;;;7.30;90.10;;;;;;5068447;28;20230;-91
2022/11/23 15:37:36;;;;;;;5.85;3.10;;;7.00;91.40;;;;;;5075283;28;20172;-94
2022/11/23 15:43:01;;;;;;;6.88;2.50;;;6.80;92.40;;;;;;5013536;28;20326;-93
2022/11/23 15:45:56;;;;;;;4.90;2.70;;;6.80;92.80;;;;;;5008279;28;20407;-92
2022/11/23 15:51:48;;;;;;;4.22;2.42;;;6.70;93.20;;;;;;4995562;28;20196;-94
2022/11/23 15:55:00;;;;;;;4.90;2.60;;;6.60;93.50;;;;;;4997358;28;20599;-94
2022/11/23 15:57:51;;;;;;;4.03;2.27;;;6.60;94.00;;;;;;4997184;28;20210;-94
2022/11/23 16:00:46;;;;;;;3.80;2.30;;;6.50;94.10;;;;;;5001034;28;20258;-93